createdAt,value
2022-10-17T03:46:19.295Z,101825.97
2022-10-17T03:49:22.918Z,101825.97
2022-10-17T03:52:26.216Z,101831.41
2022-10-17T03:55:29.599Z,101823.50
2022-10-17T03:58:31.896Z,101832.09
2022-10-17T04:01:36.300Z,101837.31
2022-10-17T04:04:38.968Z,101833.81
2022-10-17T04:07:41.478Z,101827.84
2022-10-17T04:10:45.033Z,101838.41
2022-10-17T04:13:47.865Z,101841.91
2022-10-17T04:16:50.518Z,101834.88
2022-10-17T04:19:53.586Z,101840.16
2022-10-17T04:22:58.056Z,101845.62
2022-10-17T04:26:01.833Z,101848.41
2022-10-17T04:29:05.021Z,101854.53
2022-10-17T04:32:07.431Z,101855.16
2022-10-17T04:35:10.245Z,101855.06
2022-10-17T04:38:13.364Z,101858.47
2022-10-17T04:41:18.350Z,101861.28
2022-10-17T04:44:20.821Z,101862.22
2022-10-17T04:47:24.130Z,101862.25
2022-10-17T04:50:26.640Z,101858.78
2022-10-17T04:53:39.539Z,101861.56
2022-10-17T04:56:42.019Z,101865.94
2022-10-17T04:59:44.921Z,101867.63
2022-10-17T05:02:47.836Z,101870.94
2022-10-17T05:05:50.492Z,101874.34
2022-10-17T05:08:53.111Z,101873.44
2022-10-17T05:11:56.004Z,101875.97
2022-10-17T05:14:58.296Z,101875.94
2022-10-17T05:18:02.600Z,101874.28
2022-10-17T05:21:05.723Z,101885.44
2022-10-17T05:24:10.910Z,101889.06
2022-10-17T05:27:13.540Z,101894.34
2022-10-17T05:30:16.895Z,101900.56
2022-10-17T05:33:19.589Z,101905.69
2022-10-17T05:36:22.597Z,101908.28
2022-10-17T05:39:25.238Z,101912.66
2022-10-17T05:42:28.634Z,101911.81
2022-10-17T05:45:33.186Z,101915.37
2022-10-17T05:48:37.199Z,101925.72
2022-10-17T05:51:41.064Z,101914.34
2022-10-17T05:54:43.822Z,101922.09
2022-10-17T05:57:46.589Z,101935.94
2022-10-17T06:00:49.598Z,101941.94
2022-10-17T06:03:52.383Z,101945.16
2022-10-17T06:06:56.290Z,101943.16
2022-10-17T06:09:59.059Z,101951.50
2022-10-17T06:13:01.445Z,101952.28
2022-10-17T06:16:04.965Z,101962.66
2022-10-17T06:19:07.275Z,101962.41
2022-10-17T06:22:10.871Z,101974.47
2022-10-17T06:25:13.298Z,101970.69
2022-10-17T06:28:16.610Z,101972.28
2022-10-17T06:31:18.994Z,101969.25
2022-10-17T06:34:22.082Z,101973.50
2022-10-17T06:37:24.953Z,101979.37
2022-10-17T06:40:28.417Z,101980.88
2022-10-17T06:43:30.901Z,101986.63
2022-10-17T06:46:33.703Z,101992.75
2022-10-17T06:49:36.085Z,101996.97
2022-10-17T06:52:39.537Z,101996.31
2022-10-17T06:55:44.056Z,101994.91
2022-10-17T06:58:49.927Z,102006.28
2022-10-17T07:01:53.819Z,102001.62
2022-10-17T07:04:58.849Z,102002.91
2022-10-17T07:08:01.175Z,102004.31
2022-10-17T07:11:16.749Z,102014.44
2022-10-17T07:14:19.202Z,102009.84
2022-10-17T07:17:21.895Z,102012.81
2022-10-17T07:20:25.013Z,102020.28
2022-10-17T07:23:27.721Z,102013.72
2022-10-17T07:26:30.171Z,102014.28
2022-10-17T07:29:33.078Z,102017.81
2022-10-17T07:32:35.496Z,102016.50
2022-10-17T07:35:41.150Z,102020.63
2022-10-17T07:38:43.889Z,102012.44
2022-10-17T07:41:50.418Z,102018.34
2022-10-17T07:44:53.376Z,102017.13
2022-10-17T07:47:59.070Z,102022.97
2022-10-17T07:51:03.593Z,102020.88
2022-10-17T07:54:06.589Z,102027.94
2022-10-17T07:57:09.614Z,102021.66
2022-10-17T08:00:14.281Z,102020.66
2022-10-17T08:03:16.974Z,102026.22
2022-10-17T08:06:19.430Z,102023.56
2022-10-17T08:09:22.400Z,102036.97
2022-10-17T08:12:25.992Z,102040.19
2022-10-17T08:15:31.724Z,102043.59
2022-10-17T08:18:35.722Z,102041.94
2022-10-17T08:21:38.735Z,102034.50
2022-10-17T08:24:42.754Z,102043.28
2022-10-17T08:27:45.527Z,102048.91
2022-10-17T08:30:48.082Z,102045.81
2022-10-17T08:33:51.025Z,102047.53
2022-10-17T08:36:53.418Z,102047.91
2022-10-17T08:39:56.122Z,102049.75
2022-10-17T08:43:12.196Z,102044.25
2022-10-17T08:49:38.279Z,102036.44
2022-10-17T08:53:11.246Z,102044.97
2022-10-17T08:56:43.926Z,102047.22
2022-10-17T08:59:54.211Z,102049.00
2022-10-17T09:03:22.608Z,102040.78
2022-10-17T09:06:33.616Z,102044.97
2022-10-17T09:10:09.481Z,102046.28
2022-10-17T09:16:47.754Z,102038.81
2022-10-17T09:20:12.254Z,102038.97
2022-10-17T09:23:27.878Z,102031.81
2022-10-17T09:26:30.685Z,102042.63
2022-10-17T09:29:37.905Z,102034.66
2022-10-17T09:32:43.065Z,102034.00
2022-10-17T09:35:46.805Z,102041.94
2022-10-17T09:38:55.207Z,102034.91
2022-10-17T09:42:00.546Z,102040.31
2022-10-17T09:45:13.953Z,102033.25
2022-10-17T09:48:17.071Z,102042.97
2022-10-17T09:51:25.846Z,102042.19
2022-10-17T09:54:52.719Z,102038.34
2022-10-17T09:58:04.490Z,102031.50
2022-10-17T10:01:24.397Z,102039.13
2022-10-17T10:04:30.565Z,102032.81
2022-10-17T10:07:39.841Z,102039.50
2022-10-17T10:10:43.506Z,102038.56
2022-10-17T10:13:48.334Z,102033.78
2022-10-17T10:16:53.727Z,102027.00
2022-10-17T10:19:56.436Z,102034.78
2022-10-17T10:23:13.533Z,102026.22
2022-10-17T10:26:26.154Z,102023.25
2022-10-17T10:29:31.140Z,102021.28
2022-10-17T10:32:36.680Z,102022.12
2022-10-17T10:35:39.528Z,102024.62
2022-10-17T10:38:42.513Z,102018.66
2022-10-17T10:41:48.740Z,102020.69
2022-10-17T10:44:52.792Z,102010.91
2022-10-17T10:47:58.871Z,102005.56
2022-10-17T10:51:16.318Z,102014.84
2022-10-17T10:54:26.528Z,102011.41
2022-10-17T10:57:33.327Z,102007.13
2022-10-17T11:00:39.138Z,102009.53
2022-10-17T11:03:50.974Z,101995.53
2022-10-17T11:07:04.890Z,102005.72
2022-10-17T11:10:49.630Z,102003.44
2022-10-17T11:14:03.460Z,101997.53
2022-10-17T11:17:12.103Z,102000.09
2022-10-17T11:20:27.154Z,102002.47
2022-10-17T11:23:41.486Z,101993.72
2022-10-17T11:26:55.414Z,101989.34
2022-10-17T11:29:58.549Z,101983.94
2022-10-17T11:33:03.460Z,101981.75
2022-10-17T11:36:07.976Z,101978.13
2022-10-17T11:39:18.468Z,101980.03
2022-10-17T11:42:35.665Z,101976.75
2022-10-17T11:45:46.233Z,101970.38
2022-10-17T11:49:08.841Z,101968.94
2022-10-17T11:52:31.574Z,101969.81
2022-10-17T11:55:41.892Z,101965.63
2022-10-17T11:59:02.029Z,101974.78
2022-10-17T12:02:11.732Z,101964.63
2022-10-17T12:05:49.270Z,101963.75
2022-10-17T12:09:07.471Z,101962.50
2022-10-17T12:12:10.099Z,101957.91
2022-10-17T12:15:24.598Z,101952.28
2022-10-17T12:18:27.611Z,101947.41
2022-10-17T12:22:00.256Z,101944.94
2022-10-17T12:25:04.272Z,101941.00
2022-10-17T12:28:06.415Z,101940.66
2022-10-17T12:31:23.120Z,101934.81
2022-10-17T12:34:25.527Z,101940.47
2022-10-17T12:37:43.440Z,101929.19
2022-10-17T12:40:49.100Z,101932.94
2022-10-17T12:43:53.474Z,101925.78
2022-10-17T12:47:05.164Z,101927.59
2022-10-17T12:50:47.950Z,101924.41
2022-10-17T12:53:58.533Z,101918.66
2022-10-17T12:57:01.129Z,101912.13
2022-10-17T13:00:27.536Z,101920.03
2022-10-17T13:03:42.372Z,101913.22
2022-10-17T13:06:53.313Z,101914.13
2022-10-17T13:09:56.307Z,101917.34
2022-10-17T13:13:06.597Z,101918.09
2022-10-17T13:16:09.679Z,101916.28
2022-10-17T13:19:19.781Z,101905.09
2022-10-17T13:22:28.670Z,101903.50
2022-10-17T13:25:31.390Z,101907.87
2022-10-17T13:28:39.066Z,101904.37
2022-10-17T13:31:44.444Z,101909.16
2022-10-17T13:34:47.098Z,101901.47
2022-10-17T13:37:53.948Z,101897.75
2022-10-17T13:41:05.833Z,101908.09
2022-10-17T13:44:20.994Z,101897.84
2022-10-17T13:47:27.664Z,101902.22
2022-10-17T13:50:44.816Z,101892.19
2022-10-17T13:53:47.822Z,101895.94
2022-10-17T13:56:57.061Z,101897.84
2022-10-17T14:00:10.100Z,101890.69
2022-10-17T14:03:15.100Z,101906.38
2022-10-17T14:06:23.567Z,101896.03
2022-10-17T14:09:29.536Z,101891.47
2022-10-17T14:12:33.841Z,101889.31
2022-10-17T14:15:37.235Z,101891.66
2022-10-17T14:18:40.671Z,101891.66
2022-10-17T14:21:47.858Z,101882.03
2022-10-17T14:24:53.226Z,101886.00
2022-10-17T14:28:03.476Z,101878.84
2022-10-17T14:31:11.204Z,101883.88
2022-10-17T14:34:27.703Z,101873.72
2022-10-17T14:37:44.892Z,101882.69
2022-10-17T14:40:52.779Z,101885.41
2022-10-17T14:44:02.316Z,101889.72
2022-10-17T14:47:38.077Z,101880.00
2022-10-17T14:50:32.900Z,101888.81
2022-10-17T14:53:36.196Z,101888.53
2022-10-17T14:56:43.307Z,101878.84
2022-10-17T14:59:54.566Z,101882.66
2022-10-17T15:02:57.928Z,101874.00
2022-10-17T15:06:17.356Z,101873.94
2022-10-17T15:09:19.998Z,101881.50
2022-10-17T15:12:25.057Z,101875.09
2022-10-17T15:15:31.805Z,101878.41
2022-10-17T15:18:34.060Z,101880.53
2022-10-17T15:21:40.771Z,101888.69
2022-10-17T15:24:47.424Z,101889.44
2022-10-17T15:27:50.214Z,101890.59
2022-10-17T15:30:52.550Z,101890.31
2022-10-17T15:33:55.405Z,101893.47
2022-10-17T15:36:58.713Z,101894.66
2022-10-17T15:40:01.634Z,101890.97
2022-10-17T15:43:04.040Z,101889.84
2022-10-17T15:46:13.297Z,101893.97
2022-10-17T15:49:18.585Z,101901.19
2022-10-17T15:52:22.474Z,101906.44
2022-10-17T15:55:24.973Z,101909.22
2022-10-17T15:58:35.125Z,101897.66
